Carson, KY

10:29 PM EST on January 22, 2017 (GMT -0500)
MD6908 | | Change Station

Elev 767 ft 38.69 °N, 84.94 °W | Updated 2 minutes ago

Overcast
Overcast
55.0 °F
Feels Like 55.0 °F
N
4.0
Wind Variable Wind from NE
Gusts 11.0 mph

Today
High -- | Low -- °F
--% Chance of Precip.
Yesterday
High -- | Low -- °F
Precip. -- in
Pressure 29.42 in
Visibility 10.0 miles
Clouds Mostly Cloudy 4600 ft
Overcast 9000 ft
Dew Point 52 °F
Humidity 91%
Rainfall 0.00 in
Snow Depth Not available.
7:52 AM 5:50 PM
Waning Crescent, 21% visible
METAR KCVG 230252Z 04011KT 10SM BKN046 OVC090 14/09 A2943 RMK AO2 SLP962 60000 T01390094 56005
Pressure 29.42 in
Visibility 10.0 miles
Clouds Mostly Cloudy 4600 ft
Overcast 9000 ft
Dew Point 52 °F
Humidity 91%
Rainfall 0.00 in
Snow Depth Not available.
7:52 AM 5:50 PM
Waning Crescent, 21% visible
METAR KCVG 230252Z 04011KT 10SM BKN046 OVC090 14/09 A2943 RMK AO2 SLP962 60000 T01390094 56005

Get Your Daily Forecast Email!

Thanks for signing up!

Be on the lookout for a verification email in your inbox.

You'll start receiving the daily forecast at 8 AM.

×

10-Day Weather Forecast

Almanac

Astronomy

Jan. 22, 2017 Rise Set
Actual Time
Civil Twilight
Nautical Twilight
Astronomical Twilight
Moon
Length of Visible Light
Length of Day
Tomorrow will be .
, % of the Moon is Illuminated

Today's Extremes

State Highs State Lows

Community

WunderPhotos

Upload Photos

1,962,540 photos uploaded!

WunderBlog® & News

Nearby

Air Quality

  Air Quality AQ Index Pollutant
Not available.

Snow Depth

Station Depth Elevation

Earthquake Activity

City Distance Mag. Time & Date
Minimum magnitude displayed is 2.5.

Coastal Water Temperatures

Place Temperature

Stations

Nearby Weather Stations

Station Location Temp. Windchill Dew Point Humidity Wind Precip. Elev Updated Type
                   

Watches & Warnings

There are currently no watches in effect.